»·PEaware :: N359W KLAX-KPRB

N359W :: KLAX-KPRB

FLIGHT INFORMATION

Flight Status: Arrived
Operator: Privately registered:
United States
More flights under this callsign
Pilot: Anonymous 18613 (18613)
Aircraft: BEECH AIRCRAFT BARON
(BE58)
More flights by this aircraft type
Origin: KLAX Los Angeles Intl
United States
Destination: KPRB Paso Robles Mun
United States
More flights between these airports :: More routes between these airports
Route: +LAX V299 VTU RZS PRB
File this flight plan on PilotEdge
Remarks:
Altitude:
(Current/Filed)
8,000ft
Speed:
(Current/Filed)
190kts
Departed: 07-Feb-19 02:15 PM
Arrived: 07-Feb-19 03:13 PM
Distance/Time
Traveled:
151nm/0:58
Distance/Time
To Go:
Arrived

Flight Plot

Page will automatically refresh every two minutes.

Flight plan parsing failed; only flown route is shown


Map Options




Map Legend


Flown Route
Filed Route
Departure Airport
Arrival Airport
Navaid (VOR, NDB)
Fix

Horizontal Profiles

Position Reports

Time Latitude Longitude Heading Altitude Ground
Speed
07-Feb-19 13:52 33.933721 -118.394262 89 104ft 0kts
07-Feb-19 13:53 33.933721 -118.394262 89 104ft 0kts
07-Feb-19 13:54 33.933721 -118.394262 89 104ft 0kts
07-Feb-19 13:55 33.933721 -118.394262 89 104ft 0kts
07-Feb-19 13:56 33.933721 -118.394262 89 104ft 0kts
07-Feb-19 13:57 33.933721 -118.394262 89 104ft 0kts
07-Feb-19 13:58 33.933721 -118.394262 89 104ft 0kts
07-Feb-19 13:59 33.933721 -118.394262 89 104ft 0kts
07-Feb-19 14:00 33.933721 -118.394262 89 104ft 0kts
07-Feb-19 14:01 33.933721 -118.394262 89 104ft 0kts
07-Feb-19 14:02 33.933721 -118.394262 89 104ft 0kts
07-Feb-19 14:03 33.933721 -118.394262 89 104ft 0kts
07-Feb-19 14:04 33.933721 -118.394262 89 104ft 0kts
07-Feb-19 14:05 33.933721 -118.394262 89 104ft 0kts
07-Feb-19 14:06 33.933721 -118.394262 89 104ft 0kts
07-Feb-19 14:07 33.933721 -118.394262 89 104ft 0kts
07-Feb-19 14:08 33.933721 -118.394262 89 104ft 0kts
07-Feb-19 14:09 33.933724 -118.394219 84 104ft 0kts
07-Feb-19 14:10 33.935083 -118.393006 80 102ft 15kts
07-Feb-19 14:11 33.935775 -118.386219 83 99ft 22kts
07-Feb-19 14:12 33.936173 -118.382953 40 96ft 0kts
07-Feb-19 14:13 33.936257 -118.382874 34 96ft 6kts
07-Feb-19 14:14 33.936044 -118.395657 259 189ft 112kts
07-Feb-19 14:15 33.939560 -118.435412 283 1721ft 122kts
07-Feb-19 14:16 33.947037 -118.476522 283 3118ft 126kts
07-Feb-19 14:17 33.956618 -118.518077 269 4354ft 128kts
07-Feb-19 14:18 33.965174 -118.560639 281 5570ft 128kts
07-Feb-19 14:19 33.979680 -118.599685 309 6676ft 132kts
07-Feb-19 14:20 34.000974 -118.633052 277 7662ft 122kts
07-Feb-19 14:21 34.011513 -118.680068 281 7714ft 174kts
07-Feb-19 14:22 34.027370 -118.737604 292 7699ft 176kts
07-Feb-19 14:23 34.042985 -118.792125 290 7694ft 168kts
07-Feb-19 14:24 34.057944 -118.845158 289 7691ft 165kts
07-Feb-19 14:25 34.072767 -118.897953 286 7691ft 167kts
07-Feb-19 14:26 34.087844 -118.951958 285 7682ft 169kts
07-Feb-19 14:27 34.103217 -119.007051 285 7680ft 172kts
07-Feb-19 14:28 34.121485 -119.060176 298 7707ft 175kts
07-Feb-19 14:29 34.148241 -119.109574 300 7704ft 175kts
07-Feb-19 14:30 34.175133 -119.158474 300 7702ft 172kts
07-Feb-19 14:31 34.201517 -119.206422 300 7700ft 170kts
07-Feb-19 14:32 34.228076 -119.254752 299 7698ft 174kts
07-Feb-19 14:33 34.255037 -119.303885 299 7697ft 175kts
07-Feb-19 14:34 34.282027 -119.353152 299 7696ft 175kts
07-Feb-19 14:35 34.309094 -119.402613 299 7693ft 175kts
07-Feb-19 14:36 34.336269 -119.452340 299 7680ft 175kts
07-Feb-19 14:37 34.363240 -119.501761 299 7675ft 175kts
07-Feb-19 14:38 34.390284 -119.551387 299 7670ft 175kts
07-Feb-19 14:39 34.417188 -119.600823 299 7669ft 174kts
07-Feb-19 14:40 34.443926 -119.650023 298 7669ft 174kts
07-Feb-19 14:41 34.470841 -119.699617 298 7672ft 175kts
07-Feb-19 14:42 34.497602 -119.748995 298 7672ft 175kts
07-Feb-19 14:43 34.533692 -119.788640 324 7671ft 181kts
07-Feb-19 14:44 34.577605 -119.820359 324 7669ft 181kts
07-Feb-19 14:45 34.621162 -119.851958 324 7668ft 181kts
07-Feb-19 14:46 34.664880 -119.883726 324 7667ft 181kts
07-Feb-19 14:47 34.708424 -119.915408 324 7666ft 182kts
07-Feb-19 14:48 34.751745 -119.946968 324 7664ft 182kts
07-Feb-19 14:49 34.795461 -119.978853 324 7663ft 182kts
07-Feb-19 14:50 34.838974 -120.010630 324 7662ft 182kts
07-Feb-19 14:51 34.882620 -120.042545 324 7661ft 182kts
07-Feb-19 14:52 34.926171 -120.074424 324 7660ft 183kts
07-Feb-19 14:53 34.969908 -120.106486 324 7659ft 183kts
07-Feb-19 14:54 35.013799 -120.138699 323 7657ft 184kts
07-Feb-19 14:55 35.057947 -120.171150 323 7656ft 185kts
07-Feb-19 14:56 35.102130 -120.203667 323 7654ft 186kts
07-Feb-19 14:57 35.144989 -120.235196 323 8022ft 169kts
07-Feb-19 14:58 35.187219 -120.266413 323 8053ft 181kts
07-Feb-19 14:59 35.230964 -120.298706 323 8048ft 183kts
07-Feb-19 15:00 35.274489 -120.330881 323 8042ft 182kts
07-Feb-19 15:01 35.320057 -120.364600 324 6921ft 186kts
07-Feb-19 15:02 35.364377 -120.397494 325 5523ft 186kts
07-Feb-19 15:03 35.407826 -120.429733 324 5521ft 179kts
07-Feb-19 15:04 35.450203 -120.461235 323 5360ft 172kts
07-Feb-19 15:05 35.489497 -120.490465 322 5115ft 151kts
07-Feb-19 15:06 35.526398 -120.518019 322 4244ft 157kts
07-Feb-19 15:07 35.558968 -120.542320 322 3247ft 128kts
07-Feb-19 15:08 35.587770 -120.563751 318 2921ft 100kts
07-Feb-19 15:09 35.618776 -120.587087 323 2578ft 141kts
07-Feb-19 15:10 35.651371 -120.606649 341 1488ft 119kts
07-Feb-19 15:11 35.673416 -120.623575 323 814ft 58kts
07-Feb-19 15:12 35.677392 -120.627459 262 806ft 0kts

Navigation Log

Ident Type
Flight plan parsing failed, navigation log unavailable